createdAt,value
2019-05-19T00:00:55.159Z,9.17
2019-05-19T00:01:55.637Z,9.20
2019-05-19T00:02:55.200Z,9.20
2019-05-19T00:03:55.075Z,9.26
2019-05-19T00:04:55.029Z,9.32
2019-05-19T00:05:54.986Z,9.36
2019-05-19T00:06:54.955Z,9.32
2019-05-19T00:07:54.907Z,9.32
2019-05-19T00:08:54.867Z,9.29
2019-05-19T00:09:54.829Z,9.29
2019-05-19T00:10:54.816Z,9.26
2019-05-19T00:11:54.762Z,9.28
2019-05-19T00:12:54.739Z,9.35
2019-05-19T00:13:54.681Z,9.35
2019-05-19T00:14:54.634Z,9.36
2019-05-19T00:15:54.611Z,9.35
2019-05-19T00:16:54.586Z,9.36
2019-05-19T00:17:54.564Z,9.39
2019-05-19T00:18:54.555Z,9.36
2019-05-19T00:19:54.483Z,9.29
2019-05-19T00:20:54.476Z,9.26
2019-05-19T00:21:54.387Z,9.20
2019-05-19T00:22:54.338Z,9.17
2019-05-19T00:23:54.311Z,9.10
2019-05-19T00:24:54.313Z,9.14
2019-05-19T00:25:54.235Z,9.13
2019-05-19T00:26:54.234Z,9.14
2019-05-19T00:27:54.185Z,9.13
2019-05-19T00:28:54.112Z,9.15
2019-05-19T00:29:54.108Z,9.08
2019-05-19T00:30:54.073Z,9.15
2019-05-19T00:31:54.125Z,9.32
2019-05-19T00:32:54.037Z,9.42
2019-05-19T00:33:53.949Z,9.33
2019-05-19T00:34:53.918Z,9.33
2019-05-19T00:35:53.891Z,9.42
2019-05-19T00:36:53.838Z,9.33
2019-05-19T00:37:53.782Z,9.35
2019-05-19T00:38:53.796Z,9.29
2019-05-19T00:39:53.725Z,9.28
2019-05-19T00:40:53.667Z,9.18
2019-05-19T00:41:53.666Z,9.24
2019-05-19T00:42:53.601Z,9.20
2019-05-19T00:44:21.295Z,9.13
2019-05-19T00:44:53.532Z,9.08
2019-05-19T00:45:53.536Z,9.02
2019-05-19T00:46:53.466Z,8.96
2019-05-19T00:47:53.422Z,8.96
2019-05-19T00:48:53.414Z,8.94
2019-05-19T00:49:53.338Z,8.96
2019-05-19T00:50:53.298Z,8.92
2019-05-19T00:51:53.302Z,9.04
2019-05-19T00:52:53.225Z,8.98
2019-05-19T00:53:55.746Z,8.94
2019-05-19T00:54:53.146Z,8.98
2019-05-19T00:55:53.137Z,8.92
2019-05-19T00:56:53.083Z,8.92
2019-05-19T00:57:53.052Z,8.95
2019-05-19T00:58:53.056Z,8.83
2019-05-19T00:59:52.999Z,8.96
2019-05-19T01:00:52.916Z,9.05
2019-05-19T01:01:52.924Z,9.04
2019-05-19T01:02:52.855Z,9.08
2019-05-19T01:03:52.817Z,9.04
2019-05-19T01:04:52.785Z,8.94
2019-05-19T01:05:52.772Z,8.92
2019-05-19T01:06:52.751Z,9.11
2019-05-19T01:07:52.689Z,9.18
2019-05-19T01:08:52.652Z,9.26
2019-05-19T01:09:52.615Z,9.21
2019-05-19T01:10:52.556Z,9.26
2019-05-19T01:11:52.571Z,9.33
2019-05-19T01:12:52.477Z,9.32
2019-05-19T01:13:52.439Z,9.24
2019-05-19T01:14:52.420Z,9.29
2019-05-19T01:15:52.388Z,9.23
2019-05-19T01:16:52.341Z,9.24
2019-05-19T01:17:52.306Z,9.20
2019-05-19T01:18:52.272Z,9.20
2019-05-19T01:19:55.940Z,9.11
2019-05-19T01:20:52.197Z,9.21
2019-05-19T01:21:52.140Z,9.24
2019-05-19T01:22:52.102Z,9.17
2019-05-19T01:23:52.090Z,9.17
2019-05-19T01:24:52.047Z,9.20
2019-05-19T01:25:52.021Z,9.24
2019-05-19T01:26:51.979Z,9.32
2019-05-19T01:27:51.938Z,9.38
2019-05-19T01:28:51.886Z,9.36
2019-05-19T01:29:51.857Z,9.38
2019-05-19T01:30:51.817Z,9.33
2019-05-19T01:31:51.768Z,9.36
2019-05-19T01:32:51.793Z,9.38
2019-05-19T01:33:51.692Z,9.38
2019-05-19T01:34:51.701Z,9.38
2019-05-19T01:35:51.634Z,9.35
2019-05-19T01:36:51.644Z,9.21
2019-05-19T01:37:51.546Z,9.11
2019-05-19T01:38:51.525Z,9.08
2019-05-19T01:39:51.492Z,8.92
2019-05-19T01:40:51.466Z,8.99
2019-05-19T01:41:51.414Z,8.89
2019-05-19T01:42:51.360Z,8.84
2019-05-19T01:43:51.331Z,8.89
2019-05-19T01:44:51.291Z,8.86
2019-05-19T01:45:51.243Z,8.80
2019-05-19T01:46:51.207Z,8.80
2019-05-19T01:47:51.211Z,8.80
2019-05-19T01:48:51.167Z,8.81
2019-05-19T01:49:51.096Z,8.81
2019-05-19T01:50:51.070Z,8.84
2019-05-19T01:51:51.023Z,8.87
2019-05-19T01:52:51.029Z,8.81
2019-05-19T01:53:51.010Z,8.81
2019-05-19T01:54:50.963Z,8.84
2019-05-19T01:55:51.668Z,8.87
2019-05-19T01:56:50.918Z,8.92
2019-05-19T01:57:50.818Z,8.91
2019-05-19T01:58:50.763Z,8.87
2019-05-19T01:59:50.789Z,8.86
2019-05-19T02:00:50.704Z,8.98
2019-05-19T02:01:50.700Z,8.92
2019-05-19T02:02:50.633Z,8.86
2019-05-19T02:03:50.615Z,8.84
2019-05-19T02:04:50.587Z,8.80
2019-05-19T02:05:50.506Z,8.81
2019-05-19T02:06:50.466Z,8.81
2019-05-19T02:07:50.472Z,8.96
2019-05-19T02:08:50.409Z,8.92
2019-05-19T02:09:50.403Z,9.10
2019-05-19T02:10:50.322Z,8.94
2019-05-19T02:11:50.289Z,8.79
2019-05-19T02:12:50.278Z,8.79
2019-05-19T02:13:50.252Z,8.68
2019-05-19T02:14:50.233Z,8.63
2019-05-19T02:15:50.119Z,8.71
2019-05-19T02:16:50.101Z,8.83
2019-05-19T02:17:50.060Z,8.81
2019-05-19T02:18:50.022Z,8.76
2019-05-19T02:19:49.988Z,8.63
2019-05-19T02:20:49.944Z,8.65
2019-05-19T02:21:49.910Z,8.65
2019-05-19T02:22:49.870Z,8.71
2019-05-19T02:23:49.868Z,8.61
2019-05-19T02:24:49.823Z,8.61
2019-05-19T02:25:49.774Z,8.65
2019-05-19T02:26:49.729Z,8.61
2019-05-19T02:27:49.691Z,8.58
2019-05-19T02:28:49.638Z,8.68
2019-05-19T02:29:49.592Z,8.66
2019-05-19T02:30:49.577Z,8.63
2019-05-19T02:31:49.534Z,8.63
2019-05-19T02:32:49.498Z,8.61
2019-05-19T02:33:49.462Z,8.34
2019-05-19T02:34:49.449Z,8.37
2019-05-19T02:35:49.399Z,8.38
2019-05-19T02:36:49.354Z,8.36
2019-05-19T02:37:49.324Z,8.22
2019-05-19T02:38:49.276Z,8.18
2019-05-19T02:39:49.310Z,8.11
2019-05-19T02:40:49.205Z,8.16
2019-05-19T02:41:49.192Z,8.19
2019-05-19T02:42:49.111Z,8.25
2019-05-19T02:43:49.085Z,8.25
2019-05-19T02:44:49.033Z,8.33
2019-05-19T02:45:48.999Z,8.28
2019-05-19T02:46:48.982Z,8.28
2019-05-19T02:47:48.929Z,8.29
2019-05-19T02:48:48.936Z,8.12
2019-05-19T02:49:48.858Z,8.08
2019-05-19T02:50:52.751Z,8.08
2019-05-19T02:51:48.773Z,8.08
2019-05-19T02:52:48.739Z,8.08
2019-05-19T02:53:48.761Z,8.12
2019-05-19T02:54:48.657Z,8.18
2019-05-19T02:55:48.618Z,8.12
2019-05-19T02:56:48.594Z,8.23
2019-05-19T02:57:48.560Z,8.15
2019-05-19T02:58:48.503Z,8.20
2019-05-19T02:59:48.486Z,8.25
2019-05-19T03:00:48.434Z,8.15
2019-05-19T03:01:48.425Z,8.08
2019-05-19T03:02:48.451Z,7.97
2019-05-19T03:03:48.334Z,7.92
2019-05-19T03:04:48.291Z,8.00
2019-05-19T03:05:48.239Z,7.97
2019-05-19T03:06:48.260Z,7.90
2019-05-19T03:07:48.181Z,7.77
2019-05-19T03:08:48.140Z,7.85
2019-05-19T03:09:48.115Z,7.77
2019-05-19T03:10:48.061Z,7.77
2019-05-19T03:11:48.030Z,7.68
2019-05-19T03:12:47.976Z,7.60
2019-05-19T03:13:47.950Z,7.63
2019-05-19T03:14:47.931Z,7.60
2019-05-19T03:15:47.872Z,7.63
2019-05-19T03:16:47.816Z,7.75
2019-05-19T03:17:47.785Z,7.72
2019-05-19T03:18:48.691Z,7.72
2019-05-19T03:19:47.700Z,7.61
2019-05-19T03:20:47.710Z,7.48
2019-05-19T03:21:47.635Z,7.53
2019-05-19T03:22:47.599Z,7.46
2019-05-19T03:23:47.546Z,7.55
2019-05-19T03:24:47.531Z,7.58
2019-05-19T03:25:47.498Z,7.52
2019-05-19T03:26:47.436Z,7.64
2019-05-19T03:27:47.429Z,7.64
2019-05-19T03:28:47.377Z,7.64
2019-05-19T03:29:47.327Z,7.69
2019-05-19T03:30:47.288Z,7.69
2019-05-19T03:31:47.249Z,7.57
2019-05-19T03:32:47.227Z,7.60
2019-05-19T03:33:47.201Z,7.69
2019-05-19T03:34:47.158Z,7.77
2019-05-19T03:35:47.135Z,7.72
2019-05-19T03:36:47.080Z,7.82
2019-05-19T03:37:47.028Z,7.93
2019-05-19T03:38:47.013Z,7.92
2019-05-19T03:39:46.943Z,7.93
2019-05-19T03:40:46.921Z,8.02
2019-05-19T03:41:46.883Z,7.98
2019-05-19T03:42:46.852Z,8.01
2019-05-19T03:43:46.813Z,7.97
2019-05-19T03:44:46.761Z,8.07
2019-05-19T03:45:46.721Z,8.15
2019-05-19T03:46:46.692Z,8.19
2019-05-19T03:47:46.651Z,8.07
2019-05-19T03:48:46.634Z,8.10
2019-05-19T03:49:46.588Z,8.08
2019-05-19T03:50:46.546Z,8.01
2019-05-19T03:51:46.493Z,8.02
2019-05-19T03:52:46.455Z,8.01
2019-05-19T03:53:46.441Z,8.08
2019-05-19T03:54:46.381Z,8.11
2019-05-19T03:55:46.344Z,8.08
2019-05-19T03:56:46.299Z,8.10
2019-05-19T03:57:46.281Z,8.10
2019-05-19T03:58:46.235Z,8.02
2019-05-19T03:59:46.202Z,8.05
2019-05-19T04:00:46.160Z,7.98
2019-05-19T04:01:46.115Z,8.05
2019-05-19T04:02:46.093Z,8.05
2019-05-19T04:03:46.057Z,8.05
2019-05-19T04:04:46.015Z,8.08
2019-05-19T04:05:45.957Z,8.11
2019-05-19T04:06:45.988Z,8.18
2019-05-19T04:07:45.883Z,8.25
2019-05-19T04:08:45.845Z,8.38
2019-05-19T04:09:45.821Z,8.40
2019-05-19T04:10:45.811Z,8.33
2019-05-19T04:11:45.724Z,8.29
2019-05-19T04:12:45.710Z,8.34
2019-05-19T04:13:45.667Z,8.30
2019-05-19T04:14:45.622Z,8.41
2019-05-19T04:15:45.587Z,8.44
2019-05-19T04:16:45.540Z,8.38
2019-05-19T04:17:45.503Z,8.34
2019-05-19T04:18:45.470Z,8.38
2019-05-19T04:19:45.435Z,8.45
2019-05-19T04:20:45.406Z,8.55
2019-05-19T04:21:49.298Z,8.61
2019-05-19T04:22:45.319Z,8.70
2019-05-19T04:23:45.298Z,8.73
2019-05-19T04:24:45.258Z,8.83
2019-05-19T04:25:45.247Z,8.86
2019-05-19T04:26:45.186Z,8.73
2019-05-19T04:27:45.132Z,8.81
2019-05-19T04:28:45.090Z,8.79
2019-05-19T04:29:45.054Z,8.65
2019-05-19T04:30:45.024Z,8.68
2019-05-19T04:31:44.998Z,8.87
2019-05-19T04:32:44.952Z,8.84
2019-05-19T04:33:44.926Z,8.76
2019-05-19T04:34:44.902Z,8.91
2019-05-19T04:35:44.858Z,8.94
2019-05-19T04:36:44.810Z,8.89
2019-05-19T04:37:44.777Z,8.95
2019-05-19T04:38:44.741Z,9.39
2019-05-19T04:39:44.683Z,9.71
2019-05-19T04:40:44.628Z,10.23
2019-05-19T04:41:44.639Z,10.48
2019-05-19T04:42:44.574Z,10.73
2019-05-19T04:43:44.537Z,10.88
2019-05-19T04:44:44.483Z,11.10
2019-05-19T04:45:44.476Z,11.40
2019-05-19T04:46:44.416Z,11.42
2019-05-19T04:47:44.391Z,11.43
2019-05-19T04:48:44.341Z,11.55
2019-05-19T04:49:44.345Z,11.49
2019-05-19T04:50:44.294Z,11.29
2019-05-19T04:51:44.283Z,11.27
2019-05-19T04:52:44.206Z,11.36
2019-05-19T04:53:44.221Z,11.49
2019-05-19T04:54:44.230Z,11.64
2019-05-19T04:55:44.140Z,11.83
2019-05-19T04:56:44.110Z,12.13
2019-05-19T04:57:44.059Z,12.31
2019-05-19T04:58:43.992Z,12.13
2019-05-19T04:59:43.958Z,12.13
2019-05-19T05:00:43.929Z,12.34
2019-05-19T05:01:43.936Z,12.49
2019-05-19T05:02:43.858Z,12.96
2019-05-19T05:03:43.844Z,13.17
2019-05-19T05:04:43.768Z,13.51
2019-05-19T05:05:43.745Z,13.91
2019-05-19T05:06:43.719Z,14.36
2019-05-19T05:07:43.672Z,14.68
2019-05-19T05:08:43.633Z,14.91
2019-05-19T05:09:43.610Z,15.25
2019-05-19T05:10:43.556Z,15.59
2019-05-19T05:11:43.557Z,15.86
2019-05-19T05:12:43.518Z,16.08
2019-05-19T05:13:43.465Z,16.45
2019-05-19T05:14:43.426Z,16.67
2019-05-19T05:15:43.454Z,16.78
2019-05-19T05:16:43.392Z,16.01
2019-05-19T05:17:43.361Z,15.60
2019-05-19T05:18:43.308Z,15.50
2019-05-19T05:19:43.302Z,15.65
2019-05-19T05:20:43.248Z,15.83
2019-05-19T05:21:43.230Z,16.05
2019-05-19T05:22:43.210Z,16.33
2019-05-19T05:23:43.149Z,16.14
2019-05-19T05:24:43.135Z,16.21
2019-05-19T05:25:43.087Z,16.25
2019-05-19T05:26:43.081Z,16.14
2019-05-19T05:27:43.024Z,15.82
2019-05-19T05:28:42.984Z,15.41
2019-05-19T05:29:42.990Z,15.10
2019-05-19T05:30:42.926Z,14.69
2019-05-19T05:31:42.910Z,14.29
2019-05-19T05:32:42.863Z,14.00
2019-05-19T05:33:42.903Z,13.63
2019-05-19T05:34:42.844Z,13.41
2019-05-19T05:35:42.775Z,13.38
2019-05-19T05:36:42.747Z,13.49
2019-05-19T05:37:43.254Z,13.62
2019-05-19T05:38:42.670Z,13.62
2019-05-19T05:39:42.783Z,13.51
2019-05-19T05:40:42.618Z,13.45
2019-05-19T05:41:42.592Z,13.42
2019-05-19T05:42:42.574Z,13.23
2019-05-19T05:43:42.564Z,13.17
2019-05-19T05:44:42.534Z,13.11
2019-05-19T05:45:42.464Z,13.23
2019-05-19T05:46:42.450Z,13.39
2019-05-19T05:47:42.408Z,13.48
2019-05-19T05:48:42.388Z,13.52
2019-05-19T05:49:42.346Z,13.46
2019-05-19T05:50:42.318Z,13.49
2019-05-19T05:51:42.313Z,13.64
2019-05-19T05:52:42.276Z,13.67
2019-05-19T05:53:42.203Z,13.66
2019-05-19T05:54:42.194Z,13.77
2019-05-19T05:55:42.165Z,13.84
2019-05-19T05:56:42.138Z,13.82
2019-05-19T05:57:42.078Z,13.88
2019-05-19T05:58:42.041Z,13.92
2019-05-19T05:59:42.070Z,14.04
2019-05-19T06:00:41.976Z,14.17
2019-05-19T06:01:41.942Z,14.21
2019-05-19T06:02:41.970Z,14.27
2019-05-19T06:03:41.888Z,14.52
2019-05-19T06:04:41.908Z,14.69
2019-05-19T06:05:41.831Z,14.83
2019-05-19T06:06:41.777Z,14.94
2019-05-19T06:07:42.269Z,14.98
2019-05-19T06:08:41.796Z,14.94
2019-05-19T06:09:41.722Z,15.07
2019-05-19T06:10:41.685Z,15.02
2019-05-19T06:11:41.649Z,15.11
2019-05-19T06:12:41.634Z,15.11
2019-05-19T06:13:41.577Z,15.19
2019-05-19T06:14:41.581Z,15.27
2019-05-19T06:15:41.514Z,15.38
2019-05-19T06:16:41.471Z,15.57
2019-05-19T06:17:41.441Z,15.67
2019-05-19T06:18:41.401Z,15.72
2019-05-19T06:19:41.401Z,15.62
2019-05-19T06:20:41.354Z,15.57
2019-05-19T06:21:41.315Z,15.71
2019-05-19T06:22:55.225Z,15.76
2019-05-19T06:23:41.280Z,15.92
2019-05-19T06:24:41.223Z,16.01
2019-05-19T06:25:41.210Z,16.07
2019-05-19T06:26:41.156Z,16.23
2019-05-19T06:27:41.103Z,16.39
2019-05-19T06:28:41.095Z,16.52
2019-05-19T06:29:41.063Z,16.64
2019-05-19T06:30:41.011Z,16.81
2019-05-19T06:31:40.997Z,16.94
2019-05-19T06:32:41.005Z,16.82
2019-05-19T06:33:40.930Z,16.89
2019-05-19T06:34:40.927Z,17.03
2019-05-19T06:35:40.889Z,17.30
2019-05-19T06:36:40.861Z,17.12
2019-05-19T06:37:40.815Z,16.97
2019-05-19T06:38:40.800Z,16.91
2019-05-19T06:39:40.746Z,16.93
2019-05-19T06:40:40.751Z,17.07
2019-05-19T06:41:40.678Z,17.26
2019-05-19T06:42:40.631Z,17.36
2019-05-19T06:43:40.757Z,17.56
2019-05-19T06:44:40.582Z,17.74
2019-05-19T06:45:40.561Z,17.84
2019-05-19T06:46:40.592Z,17.84
2019-05-19T06:47:40.497Z,18.27
2019-05-19T06:48:40.464Z,18.29
2019-05-19T06:49:40.484Z,18.23
2019-05-19T06:50:40.965Z,18.39
2019-05-19T06:51:40.415Z,19.16
2019-05-19T06:52:40.350Z,19.23
2019-05-19T06:53:40.324Z,19.46
2019-05-19T06:54:40.333Z,19.83
2019-05-19T06:55:40.276Z,20.23
2019-05-19T06:56:40.234Z,21.49
2019-05-19T06:57:40.193Z,20.77
2019-05-19T06:58:40.177Z,20.61
2019-05-19T06:59:40.132Z,20.16
2019-05-19T07:00:40.093Z,20.36
2019-05-19T07:01:40.127Z,20.72
2019-05-19T07:02:40.055Z,21.03
2019-05-19T07:03:40.042Z,21.03
2019-05-19T07:04:39.997Z,20.89
2019-05-19T07:05:39.968Z,21.21
2019-05-19T07:06:40.023Z,21.58
2019-05-19T07:07:39.908Z,21.86
2019-05-19T07:08:39.875Z,22.00
2019-05-19T07:09:39.858Z,22.18
2019-05-19T07:10:39.858Z,22.37
2019-05-19T07:11:39.792Z,22.60
2019-05-19T07:12:39.820Z,22.92
2019-05-19T07:13:39.744Z,23.32
2019-05-19T07:14:39.729Z,23.43
2019-05-19T07:15:39.695Z,23.83
2019-05-19T07:16:39.676Z,23.68
2019-05-19T07:17:39.637Z,23.84
2019-05-19T07:18:39.648Z,24.34
2019-05-19T07:19:39.589Z,24.25
2019-05-19T07:20:39.591Z,24.02
2019-05-19T07:21:39.703Z,23.78
2019-05-19T07:22:39.603Z,23.91
2019-05-19T07:23:40.291Z,23.88
2019-05-19T07:24:39.482Z,24.05
2019-05-19T07:25:39.464Z,24.35
2019-05-19T07:26:39.422Z,24.46
2019-05-19T07:27:39.412Z,24.32
2019-05-19T07:28:39.407Z,24.42
2019-05-19T07:29:39.353Z,24.30
2019-05-19T07:30:39.346Z,24.34
2019-05-19T07:31:39.369Z,24.13
2019-05-19T07:32:39.276Z,24.43
2019-05-19T07:33:39.349Z,24.57
2019-05-19T07:34:39.249Z,24.78
2019-05-19T07:35:39.276Z,25.00
2019-05-19T07:36:39.435Z,25.85
2019-05-19T07:37:39.185Z,26.48
2019-05-19T07:38:39.187Z,27.19
2019-05-19T07:39:39.166Z,27.74
2019-05-19T07:40:39.115Z,28.09
2019-05-19T07:41:39.209Z,28.39
2019-05-19T07:42:39.093Z,28.70
2019-05-19T07:43:39.119Z,28.61
2019-05-19T07:44:39.035Z,28.61
2019-05-19T07:45:39.018Z,28.58
2019-05-19T07:46:39.010Z,28.71
2019-05-19T07:47:39.004Z,28.73
2019-05-19T07:48:38.956Z,29.21
2019-05-19T07:49:38.937Z,29.06
2019-05-19T07:50:38.915Z,28.93
2019-05-19T07:51:38.899Z,29.15
2019-05-19T07:52:38.925Z,28.86
2019-05-19T07:53:42.854Z,28.02
2019-05-19T07:54:38.900Z,27.12
2019-05-19T07:55:38.811Z,27.06
2019-05-19T07:56:38.854Z,27.18
2019-05-19T07:57:38.781Z,27.09
2019-05-19T07:58:38.762Z,27.55
2019-05-19T07:59:38.747Z,27.87
2019-05-19T08:00:38.746Z,27.51
2019-05-19T08:01:38.698Z,27.90
2019-05-19T08:02:38.749Z,28.09
2019-05-19T08:03:38.693Z,28.18
2019-05-19T08:04:38.677Z,28.00
2019-05-19T08:05:38.613Z,28.27
2019-05-19T08:06:38.594Z,28.36
2019-05-19T08:07:38.654Z,28.64
2019-05-19T08:08:38.592Z,28.93
2019-05-19T08:09:38.570Z,29.14
2019-05-19T08:10:38.510Z,29.08
2019-05-19T08:11:39.310Z,29.06
2019-05-19T08:12:38.474Z,29.15
2019-05-19T08:13:38.634Z,29.27
2019-05-19T08:14:38.468Z,29.55
2019-05-19T08:15:38.451Z,29.83
2019-05-19T08:16:38.422Z,30.23
2019-05-19T08:17:38.426Z,30.53
2019-05-19T08:18:38.368Z,30.47
2019-05-19T08:19:38.359Z,30.51
2019-05-19T08:20:38.330Z,29.85
2019-05-19T08:21:38.335Z,28.27
2019-05-19T08:22:38.357Z,27.13
2019-05-19T08:23:38.311Z,26.85
2019-05-19T08:24:38.240Z,26.85
2019-05-19T08:25:38.238Z,26.70
2019-05-19T08:26:38.223Z,26.94
2019-05-19T08:27:38.272Z,26.92
2019-05-19T08:28:38.180Z,26.63
2019-05-19T08:29:38.816Z,26.21
2019-05-19T08:30:38.192Z,25.82
2019-05-19T08:31:38.121Z,25.80
2019-05-19T08:32:38.084Z,25.77
2019-05-19T08:33:38.198Z,25.85
2019-05-19T08:34:38.069Z,26.10
2019-05-19T08:35:38.059Z,26.51
2019-05-19T08:36:38.039Z,26.18
2019-05-19T08:37:38.018Z,26.09
2019-05-19T08:38:38.059Z,26.13
2019-05-19T08:39:37.958Z,26.52
2019-05-19T08:40:37.953Z,26.81
2019-05-19T08:41:38.005Z,27.32
2019-05-19T08:42:37.904Z,27.34
2019-05-19T08:43:37.901Z,27.62
2019-05-19T08:44:37.974Z,27.46
2019-05-19T08:45:37.877Z,28.09
2019-05-19T08:46:37.937Z,28.52
2019-05-19T08:47:38.887Z,28.98
2019-05-19T08:48:37.841Z,28.64
2019-05-19T08:49:38.073Z,27.81
2019-05-19T08:50:37.819Z,28.11
2019-05-19T08:51:37.764Z,28.76
2019-05-19T08:52:37.753Z,28.96
2019-05-19T08:53:37.732Z,28.54
2019-05-19T08:54:37.780Z,27.82
2019-05-19T08:55:37.709Z,27.41
2019-05-19T08:56:37.667Z,27.79
2019-05-19T08:57:37.637Z,27.88
2019-05-19T08:58:37.595Z,27.78
2019-05-19T08:59:37.590Z,26.81
2019-05-19T09:00:38.576Z,26.37
2019-05-19T09:01:37.588Z,25.58
2019-05-19T09:02:37.550Z,25.95
2019-05-19T09:03:37.521Z,26.84
2019-05-19T09:04:37.580Z,26.88
2019-05-19T09:05:37.500Z,26.84
2019-05-19T09:06:37.461Z,26.97
2019-05-19T09:07:37.469Z,27.37
2019-05-19T09:08:37.433Z,28.04
2019-05-19T09:09:37.428Z,28.64
2019-05-19T09:10:37.424Z,28.71
2019-05-19T09:11:37.357Z,27.57
2019-05-19T09:12:37.359Z,27.88
2019-05-19T09:13:37.334Z,28.33
2019-05-19T09:14:37.366Z,28.77
2019-05-19T09:15:37.311Z,28.70
2019-05-19T09:16:37.263Z,29.28
2019-05-19T09:17:37.271Z,29.08
2019-05-19T09:18:37.283Z,28.61
2019-05-19T09:19:37.247Z,28.17
2019-05-19T09:20:37.210Z,28.24
2019-05-19T09:21:37.173Z,28.30
2019-05-19T09:22:37.218Z,28.74
2019-05-19T09:23:37.230Z,28.88
2019-05-19T09:24:37.422Z,28.86
2019-05-19T09:25:37.146Z,29.28
2019-05-19T09:26:37.100Z,29.16
2019-05-19T09:27:37.095Z,29.43
2019-05-19T09:28:37.045Z,29.92
2019-05-19T09:29:37.034Z,30.39
2019-05-19T09:30:37.034Z,31.04
2019-05-19T09:31:36.986Z,31.44
2019-05-19T09:32:36.968Z,31.06
2019-05-19T09:33:36.949Z,30.34
2019-05-19T09:34:37.018Z,30.72
2019-05-19T09:35:36.926Z,29.55
2019-05-19T09:36:36.898Z,27.66
2019-05-19T09:37:36.892Z,27.34
2019-05-19T09:38:36.880Z,27.75
2019-05-19T09:39:36.880Z,27.75
2019-05-19T09:40:36.863Z,27.94
2019-05-19T09:41:36.856Z,28.30
2019-05-19T09:42:36.822Z,28.07
2019-05-19T09:43:36.783Z,27.50
2019-05-19T09:44:37.338Z,27.25
2019-05-19T09:45:36.738Z,26.81
2019-05-19T09:46:36.788Z,26.01
2019-05-19T09:47:37.116Z,25.65
2019-05-19T09:48:36.774Z,25.79
2019-05-19T09:49:36.693Z,26.21
2019-05-19T09:50:36.686Z,25.99
2019-05-19T09:51:37.353Z,25.94
2019-05-19T09:52:36.617Z,26.28
2019-05-19T09:53:36.584Z,26.30
2019-05-19T09:54:44.806Z,26.17
2019-05-19T09:55:36.583Z,26.01
2019-05-19T09:56:36.523Z,26.40
2019-05-19T09:57:36.490Z,26.28
2019-05-19T09:58:36.500Z,26.32
2019-05-19T09:59:36.467Z,26.26
2019-05-19T10:00:36.520Z,26.51
2019-05-19T10:01:36.435Z,26.39
2019-05-19T10:02:36.406Z,26.37
2019-05-19T10:03:36.375Z,26.32
2019-05-19T10:04:36.376Z,26.32
2019-05-19T10:05:36.360Z,26.72
2019-05-19T10:06:36.381Z,26.95
2019-05-19T10:07:36.310Z,27.29
2019-05-19T10:08:36.861Z,27.34
2019-05-19T10:09:36.279Z,26.81
2019-05-19T10:10:36.238Z,26.69
2019-05-19T10:11:36.207Z,26.67
2019-05-19T10:12:36.207Z,27.02
2019-05-19T10:13:37.814Z,26.99
2019-05-19T10:14:36.134Z,27.75
2019-05-19T10:15:36.158Z,28.09
2019-05-19T10:16:36.125Z,28.33
2019-05-19T10:17:36.081Z,28.66
2019-05-19T10:18:36.049Z,29.26
2019-05-19T10:19:36.048Z,29.90
2019-05-19T10:20:36.025Z,30.35
2019-05-19T10:21:35.993Z,30.53
2019-05-19T10:22:35.961Z,30.57
2019-05-19T10:23:35.954Z,30.17
2019-05-19T10:24:35.994Z,30.29
2019-05-19T10:25:35.896Z,30.04
2019-05-19T10:26:35.895Z,29.61
2019-05-19T10:27:35.971Z,29.24
2019-05-19T10:28:35.888Z,28.29
2019-05-19T10:29:35.844Z,27.97
2019-05-19T10:30:35.821Z,27.39
2019-05-19T10:31:35.803Z,27.51
2019-05-19T10:32:35.817Z,28.12
2019-05-19T10:33:35.783Z,28.41
2019-05-19T10:34:35.783Z,28.21
2019-05-19T10:35:35.713Z,28.27
2019-05-19T10:36:35.701Z,28.71
2019-05-19T10:37:35.669Z,29.05
2019-05-19T10:38:35.648Z,28.80
2019-05-19T10:39:35.627Z,27.94
2019-05-19T10:40:35.606Z,28.70
2019-05-19T10:41:35.597Z,29.15
2019-05-19T10:42:35.695Z,29.31
2019-05-19T10:43:35.583Z,29.02
2019-05-19T10:44:36.373Z,28.33
2019-05-19T10:45:35.529Z,28.19
2019-05-19T10:46:35.503Z,28.14
2019-05-19T10:47:35.481Z,28.14
2019-05-19T10:48:35.453Z,27.82
2019-05-19T10:49:35.430Z,28.06
2019-05-19T10:50:35.428Z,28.76
2019-05-19T10:51:35.433Z,28.95
2019-05-19T10:52:35.374Z,28.95
2019-05-19T10:53:35.367Z,29.12
2019-05-19T10:54:35.369Z,28.92
2019-05-19T10:55:36.795Z,28.40
2019-05-19T10:56:35.296Z,27.96
2019-05-19T10:57:35.280Z,27.97
2019-05-19T10:58:35.693Z,26.77
2019-05-19T10:59:35.230Z,26.43
2019-05-19T11:00:35.224Z,26.33
2019-05-19T11:01:35.224Z,26.37
2019-05-19T11:02:35.162Z,26.47
2019-05-19T11:03:35.172Z,27.13
2019-05-19T11:04:35.122Z,26.17
2019-05-19T11:05:35.104Z,25.62
2019-05-19T11:06:35.108Z,25.14
2019-05-19T11:07:35.069Z,24.57
2019-05-19T11:08:35.078Z,24.57
2019-05-19T11:09:35.037Z,24.45
2019-05-19T11:10:35.025Z,24.67
2019-05-19T11:11:35.000Z,25.15
2019-05-19T11:12:35.002Z,25.51
2019-05-19T11:13:34.971Z,25.39
2019-05-19T11:14:34.921Z,25.85
2019-05-19T11:15:34.896Z,26.17
2019-05-19T11:16:34.880Z,26.91
2019-05-19T11:17:34.849Z,27.21
2019-05-19T11:18:34.865Z,27.24
2019-05-19T11:19:34.808Z,27.37
2019-05-19T11:20:34.793Z,26.30
2019-05-19T11:21:34.783Z,25.73
2019-05-19T11:22:34.763Z,25.10
2019-05-19T11:23:34.741Z,25.64
2019-05-19T11:24:34.721Z,25.99
2019-05-19T11:25:34.710Z,26.13
2019-05-19T11:26:34.678Z,26.54
2019-05-19T11:27:34.640Z,26.60
2019-05-19T11:28:35.398Z,26.69
2019-05-19T11:29:34.588Z,26.29
2019-05-19T11:30:35.387Z,26.33
2019-05-19T11:31:34.606Z,26.20
2019-05-19T11:32:34.583Z,25.77
2019-05-19T11:33:35.394Z,26.09
2019-05-19T11:34:34.504Z,25.61
2019-05-19T11:35:34.504Z,25.18
2019-05-19T11:36:34.450Z,24.78
2019-05-19T11:37:34.435Z,24.68
2019-05-19T11:38:34.434Z,24.99
2019-05-19T11:39:34.359Z,25.61
2019-05-19T11:40:34.381Z,26.05
2019-05-19T11:41:34.311Z,26.44
2019-05-19T11:42:34.327Z,26.26
2019-05-19T11:43:34.279Z,26.13
2019-05-19T11:44:34.288Z,26.73
2019-05-19T11:45:34.236Z,26.80
2019-05-19T11:46:34.239Z,26.76
2019-05-19T11:47:34.197Z,27.00
2019-05-19T11:48:34.169Z,27.19
2019-05-19T11:49:34.180Z,27.39
2019-05-19T11:50:34.173Z,27.75
2019-05-19T11:51:34.108Z,27.93
2019-05-19T11:52:34.092Z,28.09
2019-05-19T11:53:34.111Z,28.15
2019-05-19T11:54:34.061Z,27.93
2019-05-19T11:55:34.011Z,27.77
2019-05-19T11:56:34.017Z,27.65
2019-05-19T11:57:33.964Z,27.51
2019-05-19T11:58:33.961Z,27.40
2019-05-19T11:59:33.916Z,27.10
2019-05-19T12:00:33.913Z,27.41
2019-05-19T12:01:33.929Z,27.77
2019-05-19T12:02:33.906Z,27.72
2019-05-19T12:03:33.885Z,27.90
2019-05-19T12:04:33.836Z,27.93
2019-05-19T12:05:33.829Z,27.93
2019-05-19T12:06:39.561Z,28.11
2019-05-19T12:07:33.785Z,28.15
2019-05-19T12:08:33.736Z,28.17
2019-05-19T12:09:33.700Z,28.14
2019-05-19T12:10:33.698Z,28.52
2019-05-19T12:11:33.682Z,27.96
2019-05-19T12:12:33.680Z,26.80
2019-05-19T12:13:35.138Z,26.07
2019-05-19T12:14:33.654Z,26.28
2019-05-19T12:15:33.589Z,26.58
2019-05-19T12:16:33.577Z,26.84
2019-05-19T12:17:33.537Z,26.89
2019-05-19T12:18:33.525Z,26.97
2019-05-19T12:19:33.491Z,27.36
2019-05-19T12:20:33.475Z,27.47
2019-05-19T12:21:33.489Z,27.59
2019-05-19T12:22:33.453Z,27.79
2019-05-19T12:23:33.459Z,27.41
2019-05-19T12:24:33.398Z,27.25
2019-05-19T12:25:33.377Z,27.18
2019-05-19T12:26:34.881Z,27.21
2019-05-19T12:27:33.441Z,27.07
2019-05-19T12:28:33.328Z,27.14
2019-05-19T12:29:33.416Z,27.37
2019-05-19T12:30:33.352Z,27.09
2019-05-19T12:31:33.263Z,26.88
2019-05-19T12:32:33.233Z,27.02
2019-05-19T12:33:33.218Z,27.31
2019-05-19T12:34:33.181Z,27.74
2019-05-19T12:35:33.168Z,27.36
2019-05-19T12:36:33.159Z,27.47
2019-05-19T12:37:33.112Z,27.46
2019-05-19T12:38:33.114Z,27.18
2019-05-19T12:39:33.076Z,27.40
2019-05-19T12:40:33.056Z,27.69
2019-05-19T12:41:33.047Z,27.74
2019-05-19T12:42:33.029Z,27.66
2019-05-19T12:43:33.021Z,27.13
2019-05-19T12:44:32.978Z,27.13
2019-05-19T12:45:33.015Z,26.94
2019-05-19T12:46:32.966Z,27.14
2019-05-19T12:47:32.899Z,27.00
2019-05-19T12:48:32.969Z,27.07
2019-05-19T12:49:32.860Z,27.37
2019-05-19T12:50:33.353Z,27.37
2019-05-19T12:51:32.830Z,27.02
2019-05-19T12:52:32.804Z,26.92
2019-05-19T12:53:32.788Z,26.88
2019-05-19T12:54:32.770Z,26.76
2019-05-19T12:55:32.740Z,26.67
2019-05-19T12:56:39.524Z,26.30
2019-05-19T12:57:32.717Z,26.15
2019-05-19T12:58:32.683Z,26.13
2019-05-19T12:59:32.669Z,26.23
2019-05-19T13:00:32.636Z,26.37
2019-05-19T13:01:32.610Z,26.65